Time;durP1;ratioP1;P1;durP2;ratioP2;P2;SDS_P1;SDS_P2;PMS_P1;PMS_P2;Temp;Humidity;BMP_temperature;BMP_pressure;BME280_temperature;BME280_humidity;BME280_pressure;Samples;Min_cycle;Max_cycle;Signal;HPM_P1;HPM_P2
2023/05/31 00:00:46;;;;;;;8.48;3.35;;;;;;;;;;5075555;28;20043;-68
2023/05/31 00:03:13;;;;;;;7.78;3.10;;;;;;;;;;5092187;28;20404;-68
2023/05/31 00:05:39;;;;;;;7.75;3.00;;;;;;;;;;5092322;28;20480;-69
2023/05/31 00:08:06;;;;;;;7.38;3.00;;;;;;;;;;5092386;28;20552;-68
2023/05/31 00:10:32;;;;;;;6.00;2.97;;;;;;;;;;5091949;28;20052;-68
2023/05/31 00:12:58;;;;;;;6.50;3.13;;;;;;;;;;5092055;28;20040;-68
2023/05/31 00:15:24;;;;;;;5.93;3.10;;;12.10;99.90;;;;;;5092117;28;20040;-68
2023/05/31 00:17:50;;;;;;;7.13;3.30;;;;;;;;;;5091904;28;20119;-68
2023/05/31 00:20:17;;;;;;;7.00;3.13;;;;;;;;;;5092055;28;20035;-68
2023/05/31 00:22:43;;;;;;;6.75;3.20;;;;;;;;;;5091942;28;20047;-68
2023/05/31 00:25:09;;;;;;;7.28;3.28;;;;;;;;;;5091861;28;20047;-68
2023/05/31 00:27:34;;;;;;;7.78;3.38;;;13.10;99.90;;;;;;5075221;28;20089;-68
2023/05/31 00:30:01;;;;;;;8.65;3.08;;;;;;;;;;5091873;28;20044;-68
2023/05/31 00:32:27;;;;;;;12.05;3.67;;;;;;;;;;5074964;28;20093;-68
2023/05/31 00:34:53;;;;;;;11.38;3.30;;;;;;;;;;5091740;28;20078;-69
2023/05/31 00:37:19;;;;;;;10.40;3.80;;;;;;;;;;5092065;28;20109;-69
2023/05/31 00:39:45;;;;;;;13.73;3.92;;;;;;;;;;5075321;28;20379;-69
2023/05/31 00:42:11;;;;;;;7.20;3.22;;;;;;;;;;5075238;28;20032;-69
2023/05/31 00:44:37;;;;;;;5.65;3.13;;;;;;;;;;5091767;28;20048;-69
2023/05/31 00:47:03;;;;;;;6.07;3.20;;;;;;;;;;5092006;28;20040;-69
2023/05/31 00:49:30;;;;;;;9.13;3.50;;;;;;;;;;5091786;28;20036;-69
2023/05/31 00:51:56;;;;;;;7.75;3.35;;;;;;;;;;5091317;28;20044;-69
2023/05/31 00:54:22;;;;;;;8.10;3.50;;;11.80;99.90;;;;;;5091849;28;20193;-69
2023/05/31 00:56:49;;;;;;;7.75;3.58;;;;;;;;;;5091892;28;20044;-69
2023/05/31 00:59:15;;;;;;;8.18;3.45;;;11.70;99.90;;;;;;5078122;28;20040;-69
2023/05/31 01:01:41;;;;;;;7.68;3.30;;;;;;;;;;5095803;28;20109;-69
2023/05/31 01:04:08;;;;;;;6.38;3.25;;;11.90;99.90;;;;;;5095524;28;20492;-69
2023/05/31 01:06:35;;;;;;;6.00;3.20;;;;;;;;;;5095458;28;20097;-69
2023/05/31 01:09:10;;;;;;;7.47;3.50;;;11.70;99.90;;;;;;5095662;28;20040;-69
2023/05/31 01:11:45;;;;;;;6.85;3.38;;;11.90;99.90;;;;;;5095295;28;20185;-69
2023/05/31 01:14:31;;;;;;;6.25;3.10;;;11.80;99.90;;;;;;5095335;28;20040;-69
2023/05/31 01:17:30;;;;;;;5.95;3.50;;;11.90;99.90;;;;;;5095284;28;20109;-69
2023/05/31 01:19:58;;;;;;;7.82;3.40;;;;;;;;;;5129584;27;20048;-69
2023/05/31 01:22:50;;;;;;;6.90;3.25;;;11.70;99.90;;;;;;5096392;28;20036;-69
2023/05/31 01:25:29;;;;;;;5.82;3.70;;;11.90;99.90;;;;;;5096710;28;20044;-69
2023/05/31 01:27:58;;;;;;;5.93;2.95;;;11.50;99.90;;;;;;5095076;28;20039;-69
2023/05/31 01:30:25;;;;;;;8.38;3.72;;;;;;;;;;5094831;28;20048;-69
2023/05/31 01:32:52;;;;;;;6.38;3.45;;;;;;;;;;5094991;28;20046;-69
2023/05/31 01:35:18;;;;;;;7.22;3.67;;;;;;;;;;5094946;28;20078;-69
2023/05/31 01:37:45;;;;;;;9.75;4.22;;;;;;;;;;5095260;28;20094;-69
2023/05/31 01:40:13;;;;;;;10.93;4.13;;;11.60;99.90;;;;;;5094979;28;20488;-69
2023/05/31 01:42:40;;;;;;;10.00;4.60;;;11.40;99.90;;;;;;5094769;28;20082;-69
2023/05/31 01:45:07;;;;;;;8.85;3.83;;;12.50;99.90;;;;;;5094888;28;20503;-69
2023/05/31 01:47:33;;;;;;;8.55;4.00;;;11.50;99.90;;;;;;5112147;27;20388;-69
2023/05/31 01:49:59;;;;;;;8.40;4.18;;;;;;;;;;5094965;28;20061;-69
2023/05/31 01:52:26;;;;;;;6.93;4.13;;;;;;;;;;5077596;28;20047;-69
2023/05/31 01:54:52;;;;;;;7.18;4.00;;;;;;;;;;5094515;28;20112;-69
2023/05/31 01:57:21;;;;;;;8.40;4.18;;;11.40;99.90;;;;;;5094488;28;20039;-69
2023/05/31 01:59:47;;;;;;;9.35;5.07;;;;;;;;;;5094838;28;20044;-69
2023/05/31 02:02:13;;;;;;;9.98;4.75;;;;;;;;;;5094789;28;20123;-69
2023/05/31 02:04:39;;;;;;;11.38;4.80;;;;;;;;;;5077819;28;20036;-69
2023/05/31 02:07:05;;;;;;;10.80;4.82;;;;;;;;;;5094362;28;20048;-69
2023/05/31 02:09:31;;;;;;;7.93;4.75;;;;;;;;;;5093539;28;20380;-69
2023/05/31 02:11:57;;;;;;;11.75;4.60;;;;;;;;;;5094181;28;20047;-69
2023/05/31 02:14:23;;;;;;;6.95;5.00;;;;;;;;;;5077345;28;20047;-69
2023/05/31 02:16:49;;;;;;;9.20;4.97;;;;;;;;;;5093925;28;20071;-69
2023/05/31 02:19:16;;;;;;;10.30;4.70;;;;;;;;;;5077533;28;20125;-69
2023/05/31 02:21:42;;;;;;;11.98;5.18;;;;;;;;;;5093771;28;20050;-69
2023/05/31 02:24:08;;;;;;;13.05;6.13;;;;;;;;;;5093881;28;20105;-69
2023/05/31 02:26:34;;;;;;;11.52;5.72;;;;;;;;;;5094156;28;20395;-69
2023/05/31 02:29:00;;;;;;;13.45;6.18;;;;;;;;;;5093902;28;20123;-69
2023/05/31 02:31:26;;;;;;;11.05;5.25;;;;;;;;;;5093820;28;20442;-69
2023/05/31 02:33:52;;;;;;;10.63;5.45;;;;;;;;;;5094113;28;20122;-69
2023/05/31 02:36:18;;;;;;;12.55;5.50;;;;;;;;;;5093783;28;20070;-69
2023/05/31 02:38:45;;;;;;;8.18;5.63;;;;;;;;;;5093863;28;20079;-69
2023/05/31 02:41:11;;;;;;;12.10;5.28;;;;;;;;;;5093816;28;20101;-69
2023/05/31 02:43:37;;;;;;;10.48;5.65;;;;;;;;;;5076964;28;20075;-69
2023/05/31 02:46:03;;;;;;;12.60;5.28;;;;;;;;;;5093530;28;20097;-69
2023/05/31 02:48:29;;;;;;;13.30;5.88;;;;;;;;;;5093665;28;20066;-69
2023/05/31 02:50:56;;;;;;;11.48;5.25;;;;;;;;;;5076670;28;20075;-69
2023/05/31 02:53:22;;;;;;;12.35;5.40;;;;;;;;;;5093385;28;20051;-69
2023/05/31 02:55:48;;;;;;;9.63;5.05;;;;;;;;;;5093318;28;20127;-69
2023/05/31 02:58:14;;;;;;;8.93;5.22;;;;;;;;;;5076520;28;20036;-69
2023/05/31 03:00:41;;;;;;;12.85;5.78;;;10.80;99.90;;;;;;5093346;28;20036;-69
2023/05/31 03:03:07;;;;;;;7.35;5.07;;;;;;;;;;5093086;28;20436;-69
2023/05/31 03:05:33;;;;;;;12.40;5.05;;;;;;;;;;5093295;28;20123;-70
2023/05/31 03:07:59;;;;;;;7.88;4.97;;;;;;;;;;5093171;28;20377;-69
2023/05/31 03:10:25;;;;;;;10.77;5.00;;;;;;;;;;5092898;28;20119;-69
2023/05/31 03:12:52;;;;;;;12.10;4.88;;;;;;;;;;5092769;28;20044;-69
2023/05/31 03:15:18;;;;;;;10.38;5.13;;;;;;;;;;5075983;28;20043;-69
2023/05/31 03:17:44;;;;;;;12.70;5.80;;;;;;;;;;5075825;28;20083;-69
2023/05/31 03:20:10;;;;;;;9.77;5.28;;;;;;;;;;5075813;28;20051;-69
2023/05/31 03:22:37;;;;;;;9.27;5.28;;;10.60;99.90;;;;;;5092822;28;20101;-69
2023/05/31 03:25:03;;;;;;;8.82;4.75;;;;;;;;;;5092776;28;20078;-69
2023/05/31 03:27:30;;;;;;;11.50;5.10;;;;;;;;;;5092753;28;20046;-70
2023/05/31 03:29:56;;;;;;;16.45;5.68;;;;;;;;;;5092485;28;20917;-70
2023/05/31 03:32:22;;;;;;;12.00;5.35;;;;;;;;;;5092683;28;20048;-69
2023/05/31 03:34:48;;;;;;;7.88;5.15;;;;;;;;;;5092674;28;20054;-69
2023/05/31 03:37:14;;;;;;;12.38;5.28;;;;;;;;;;5092799;28;20036;-69
2023/05/31 03:39:40;;;;;;;12.32;5.45;;;;;;;;;;5075980;28;20391;-69
2023/05/31 03:42:06;;;;;;;13.95;6.05;;;11.00;99.90;;;;;;5092784;28;20036;-69
2023/05/31 03:44:33;;;;;;;13.35;5.82;;;;;;;;;;5092714;28;20101;-69
2023/05/31 03:46:59;;;;;;;11.82;4.95;;;;;;;;;;5075997;28;20480;-69
2023/05/31 03:49:25;;;;;;;13.88;5.47;;;;;;;;;;5092783;28;20032;-69
2023/05/31 03:51:52;;;;;;;11.68;4.95;;;;;;;;;;5092241;28;20123;-69
2023/05/31 03:54:18;;;;;;;11.57;4.95;;;;;;;;;;5092358;28;20036;-69
2023/05/31 03:56:44;;;;;;;11.88;5.45;;;;;;;;;;5075613;28;20058;-69
2023/05/31 03:59:10;;;;;;;10.95;5.43;;;;;;;;;;5092329;28;20036;-69
2023/05/31 04:01:37;;;;;;;10.60;5.55;;;;;;;;;;5092193;28;20511;-70
2023/05/31 04:04:03;;;;;;;11.43;5.60;;;;;;;;;;5092426;28;20124;-69
2023/05/31 04:06:29;;;;;;;13.07;5.43;;;;;;;;;;5092187;28;20044;-69
2023/05/31 04:08:55;;;;;;;12.10;5.22;;;;;;;;;;5092260;28;20044;-69
2023/05/31 04:11:21;;;;;;;13.20;5.47;;;10.50;99.90;;;;;;5091898;28;20480;-69
2023/05/31 04:13:48;;;;;;;15.65;5.57;;;;;;;;;;5075260;28;20036;-69
2023/05/31 04:16:14;;;;;;;13.85;6.30;;;;;;;;;;5092242;28;20472;-69
2023/05/31 04:18:40;;;;;;;10.60;5.60;;;;;;;;;;5091857;28;20052;-69
2023/05/31 04:21:07;;;;;;;12.80;5.97;;;;;;;;;;5092309;28;20048;-69
2023/05/31 04:23:36;;;;;;;18.67;6.97;;;;;;;;;;5075602;28;20090;-69
2023/05/31 04:26:02;;;;;;;12.85;6.03;;;;;;;;;;5091941;28;20119;-69
2023/05/31 04:28:29;;;;;;;13.02;5.57;;;;;;;;;;5091856;28;20063;-69
2023/05/31 04:30:57;;;;;;;16.48;6.10;;;;;;;;;;5091849;28;20048;-68
2023/05/31 04:33:23;;;;;;;9.63;5.35;;;;;;;;;;5094007;28;20079;-68
2023/05/31 04:35:50;;;;;;;15.68;7.07;;;10.50;99.90;;;;;;5079160;28;20067;-69
2023/05/31 04:38:18;;;;;;;13.45;6.32;;;;;;;;;;5096046;28;20039;-69
2023/05/31 04:40:44;;;;;;;11.38;5.88;;;;;;;;;;5096201;28;20044;-68
2023/05/31 04:43:10;;;;;;;11.85;5.85;;;;;;;;;;5096181;28;20040;-68
2023/05/31 04:45:36;;;;;;;10.77;6.22;;;;;;;;;;5095828;28;20039;-68
2023/05/31 04:48:02;;;;;;;13.00;5.95;;;;;;;;;;5078879;28;20044;-68
2023/05/31 04:50:29;;;;;;;16.98;6.10;;;;;;;;;;5079148;28;20036;-69
2023/05/31 04:52:55;;;;;;;14.13;6.72;;;;;;;;;;5095908;28;20484;-69
2023/05/31 04:55:21;;;;;;;12.15;6.50;;;;;;;;;;5079315;28;20122;-68
2023/05/31 04:57:47;;;;;;;18.85;7.05;;;;;;;;;;5096086;28;20109;-69
2023/05/31 05:00:17;;;;;;;13.07;6.53;;;;;;;;;;5095539;28;20500;-68
2023/05/31 05:02:43;;;;;;;20.80;6.47;;;;;;;;;;5095582;28;20052;-69
2023/05/31 05:05:09;;;;;;;19.33;6.82;;;;;;;;;;5095738;28;20392;-69
2023/05/31 05:07:36;;;;;;;16.17;6.78;;;;;;;;;;5095380;28;20048;-68
2023/05/31 05:10:02;;;;;;;15.23;6.75;;;;;;;;;;5095553;28;20095;-68
2023/05/31 05:12:29;;;;;;;17.00;6.80;;;;;;;;;;5095660;28;20387;-68
2023/05/31 05:14:55;;;;;;;16.08;7.05;;;;;;;;;;5095517;28;20486;-68
2023/05/31 05:17:21;;;;;;;14.48;7.15;;;;;;;;;;5095084;28;20052;-68
2023/05/31 05:19:47;;;;;;;15.05;6.82;;;;;;;;;;5095217;28;20496;-68
2023/05/31 05:22:13;;;;;;;12.38;6.38;;;;;;;;;;5078169;28;20086;-68
2023/05/31 05:24:39;;;;;;;12.43;6.82;;;;;;;;;;5095115;28;20072;-68
2023/05/31 05:27:06;;;;;;;14.15;7.03;;;;;;;;;;5095273;28;20040;-69
2023/05/31 05:29:32;;;;;;;16.60;6.95;;;;;;;;;;5095156;28;20071;-68
2023/05/31 05:31:58;;;;;;;16.85;7.35;;;;;;;;;;5094865;28;20078;-68
2023/05/31 05:34:24;;;;;;;15.88;7.57;;;;;;;;;;5094988;28;20480;-69
2023/05/31 05:36:52;;;;;;;17.25;7.68;;;;;;;;;;5095146;28;20044;-68
2023/05/31 05:39:18;;;;;;;17.70;7.50;;;;;;;;;;5078314;28;20032;-68
2023/05/31 05:41:44;;;;;;;17.48;7.25;;;;;;;;;;5095106;28;20159;-70
2023/05/31 05:44:10;;;;;;;20.13;7.22;;;;;;;;;;5093845;28;20043;-69
2023/05/31 05:46:36;;;;;;;19.67;8.15;;;;;;;;;;5095950;28;20097;-70
2023/05/31 05:49:02;;;;;;;26.25;9.63;;;;;;;;;;5094578;28;20044;-69
2023/05/31 05:51:29;;;;;;;17.77;7.43;;;;;;;;;;5094431;28;20047;-69
2023/05/31 05:53:55;;;;;;;20.27;8.57;;;;;;;;;;5078195;28;20035;-67
2023/05/31 05:56:21;;;;;;;17.25;8.02;;;;;;;;;;5077945;28;20063;-70
2023/05/31 05:58:47;;;;;;;19.42;7.55;;;;;;;;;;5094454;28;20040;-69
2023/05/31 06:01:26;;;;;;;21.05;7.45;;;;;;;;;;5094380;28;20046;-68
2023/05/31 06:03:54;;;;;;;16.00;6.72;;;;;;;;;;5077896;28;20483;-68
2023/05/31 06:06:20;;;;;;;14.80;6.30;;;;;;;;;;5094585;28;20496;-69
2023/05/31 06:08:46;;;;;;;18.65;6.40;;;;;;;;;;5094467;28;20047;-70
2023/05/31 06:11:15;;;;;;;13.23;6.43;;;;;;;;;;5094111;28;20036;-70
2023/05/31 06:13:42;;;;;;;18.92;6.53;;;12.90;99.90;;;;;;5094169;28;20040;-70
2023/05/31 06:16:08;;;;;;;19.55;6.55;;;;;;;;;;5094244;28;20472;-70
2023/05/31 06:18:34;;;;;;;19.60;6.90;;;;;;;;;;5077203;28;20052;-70
2023/05/31 06:21:01;;;;;;;15.93;6.10;;;;;;;;;;5077193;28;20055;-70
2023/05/31 06:23:27;;;;;;;17.38;7.35;;;;;;;;;;5094099;28;20047;-70
2023/05/31 06:25:53;;;;;;;16.17;7.18;;;;;;;;;;5093853;28;20510;-70
2023/05/31 06:28:19;;;;;;;12.45;6.22;;;;;;;;;;5077036;28;20043;-70
2023/05/31 06:30:45;;;;;;;18.52;6.82;;;;;;;;;;5093626;28;20036;-70
2023/05/31 06:33:12;;;;;;;15.75;6.32;;;;;;;;;;5093649;28;20398;-70
2023/05/31 06:35:39;;;;;;;14.82;5.75;;;;;;;;;;5076900;28;20072;-69
2023/05/31 06:38:06;;;;;;;15.88;6.43;;;;;;;;;;5093908;28;20480;-69
2023/05/31 06:40:33;;;;;;;20.02;6.57;;;;;;;;;;5093854;28;20048;-69
2023/05/31 06:42:59;;;;;;;17.02;6.75;;;;;;;;;;5076968;28;20043;-69
2023/05/31 06:45:25;;;;;;;13.02;6.47;;;;;;;;;;5077389;28;20388;-69
2023/05/31 06:47:51;;;;;;;17.00;6.45;;;;;;;;;;5093623;28;20043;-69
2023/05/31 06:50:17;;;;;;;15.65;6.80;;;;;;;;;;5076778;28;20523;-69
2023/05/31 06:52:43;;;;;;;13.52;6.15;;;;;;;;;;5093449;28;20044;-69
2023/05/31 06:55:09;;;;;;;13.80;6.70;;;;;;;;;;5093205;28;20085;-69
2023/05/31 06:57:35;;;;;;;14.57;6.82;;;;;;;;;;5093112;28;20048;-69
2023/05/31 07:00:03;;;;;;;13.30;6.88;;;;;;;;;;5093517;28;20036;-69
2023/05/31 07:02:30;;;;;;;10.40;5.75;;;;;;;;;;5093127;28;20093;-69
2023/05/31 07:04:56;;;;;;;15.70;5.78;;;;;;;;;;5093118;28;20040;-69
2023/05/31 07:07:22;;;;;;;12.45;6.22;;;;;;;;;;5093012;28;20101;-69
2023/05/31 07:09:50;;;;;;;11.57;5.40;;;;;;;;;;5093300;28;20139;-69
2023/05/31 07:12:17;;;;;;;10.15;5.35;;;;;;;;;;5076138;28;20048;-69
2023/05/31 07:14:43;;;;;;;9.48;5.28;;;;;;;;;;5093259;28;20035;-70
2023/05/31 07:17:09;;;;;;;10.50;5.18;;;;;;;;;;5092636;28;20055;-70
2023/05/31 07:19:48;;;;;;;11.07;5.63;;;14.30;99.90;;;;;;5092691;28;20036;-69
2023/05/31 07:22:17;;;;;;;8.13;4.78;;;;;;;;;;5076061;28;20391;-69
2023/05/31 07:24:44;;;;;;;11.45;4.88;;;14.30;99.90;;;;;;5092691;28;20506;-69
2023/05/31 07:27:10;;;;;;;8.90;4.45;;;;;;;;;;5092753;28;20036;-69
2023/05/31 07:29:37;;;;;;;7.57;4.35;;;;;;;;;;5092505;28;20052;-69
2023/05/31 07:32:03;;;;;;;7.60;3.85;;;;;;;;;;5092475;28;20036;-69
2023/05/31 07:34:29;;;;;;;11.15;4.15;;;;;;;;;;5093085;28;20040;-69
2023/05/31 07:36:55;;;;;;;9.85;4.22;;;;;;;;;;5092758;28;20051;-69
2023/05/31 07:39:22;;;;;;;7.35;3.42;;;;;;;;;;5092529;28;20547;-69
2023/05/31 07:41:48;;;;;;;11.35;4.00;;;;;;;;;;5092649;28;20090;-69
2023/05/31 07:44:16;;;;;;;8.98;3.63;;;;;;;;;;5092492;28;20051;-69
2023/05/31 07:46:42;;;;;;;8.30;3.78;;;13.80;99.90;;;;;;5092350;28;20487;-69
2023/05/31 07:49:08;;;;;;;13.93;4.53;;;;;;;;;;5092801;28;20373;-69
2023/05/31 07:51:35;;;;;;;12.13;4.53;;;;;;;;;;5092315;28;20547;-69
2023/05/31 07:54:02;;;;;;;11.55;3.85;;;;;;;;;;5092258;28;20523;-69
2023/05/31 07:56:29;;;;;;;8.75;4.45;;;;;;;;;;5059051;28;20071;-69
2023/05/31 07:58:55;;;;;;;12.07;4.03;;;;;;;;;;5075494;28;20044;-69
2023/05/31 08:01:21;;;;;;;10.55;4.38;;;;;;;;;;5092182;28;20040;-69
2023/05/31 08:03:49;;;;;;;9.63;3.63;;;;;;;;;;5075755;28;20544;-69
2023/05/31 08:06:16;;;;;;;10.63;4.13;;;;;;;;;;5075733;28;20069;-69
2023/05/31 08:08:43;;;;;;;11.93;3.67;;;;;;;;;;5091342;28;20044;-69
2023/05/31 08:11:09;;;;;;;10.13;4.00;;;;;;;;;;5092199;28;20032;-69
2023/05/31 08:13:35;;;;;;;10.80;3.90;;;;;;;;;;5092341;28;20075;-69
2023/05/31 08:16:01;;;;;;;15.50;4.47;;;;;;;;;;5093394;28;20036;-69
2023/05/31 08:18:27;;;;;;;11.38;4.00;;;;;;;;;;5075052;28;20142;-69
2023/05/31 08:20:53;;;;;;;15.23;4.53;;;;;;;;;;5092010;28;20052;-69
2023/05/31 08:23:22;;;;;;;11.75;4.43;;;;;;;;;;5092337;28;20048;-69
2023/05/31 08:25:50;;;;;;;14.52;5.00;;;;;;;;;;5091977;28;20044;-69
2023/05/31 08:28:17;;;;;;;10.40;4.47;;;;;;;;;;5074907;28;20046;-69
2023/05/31 08:30:43;;;;;;;10.07;4.68;;;;;;;;;;5074926;28;20054;-69
2023/05/31 08:33:09;;;;;;;13.32;5.45;;;;;;;;;;5091881;28;20071;-69
2023/05/31 08:35:35;;;;;;;14.25;5.07;;;;;;;;;;5091811;28;20032;-69
2023/05/31 08:38:01;;;;;;;15.93;5.38;;;;;;;;;;5091999;28;20036;-69
2023/05/31 08:40:27;;;;;;;11.68;5.07;;;;;;;;;;5075009;28;20123;-69
2023/05/31 08:43:02;;;;;;;12.25;5.85;;;15.20;99.90;;;;;;5075338;28;20098;-69
2023/05/31 08:45:28;;;;;;;13.63;5.10;;;;;;;;;;5091759;28;20084;-69
2023/05/31 08:48:17;;;;;;;15.05;4.97;;;15.10;99.90;;;;;;5091685;28;20131;-69
2023/05/31 08:50:43;;;;;;;12.93;5.38;;;;;;;;;;5092016;28;20143;-69
2023/05/31 08:53:09;;;;;;;11.88;5.32;;;;;;;;;;5074889;28;20043;-69
2023/05/31 08:55:37;;;;;;;15.65;6.00;;;15.40;99.90;;;;;;5091658;28;20127;-69
2023/05/31 08:58:04;;;;;;;11.63;5.97;;;16.10;99.90;;;;;;5075038;28;20054;-69
2023/05/31 09:00:31;;;;;;;10.45;5.07;;;15.10;99.90;;;;;;5075047;28;20043;-69
2023/05/31 09:02:59;;;;;;;13.88;6.13;;;15.60;99.90;;;;;;5074806;28;20039;-69
2023/05/31 09:05:25;;;;;;;14.02;5.68;;;;;;;;;;5075230;28;20051;-69
2023/05/31 09:07:52;;;;;;;13.13;6.03;;;;;;;;;;5091687;28;20098;-69
2023/05/31 09:10:19;;;;;;;14.57;6.28;;;;;;;;;;5091456;28;20500;-69
2023/05/31 09:12:45;;;;;;;14.05;5.72;;;;;;;;;;5092926;28;20047;-69
2023/05/31 09:15:15;;;;;;;15.80;5.82;;;15.20;99.90;;;;;;5091861;28;20040;-69
2023/05/31 09:17:46;;;;;;;14.52;6.30;;;15.40;99.90;;;;;;5091300;28;20056;-69
2023/05/31 09:20:13;;;;;;;15.55;5.82;;;;;;;;;;5094552;28;20488;-69
2023/05/31 09:22:39;;;;;;;13.45;5.97;;;;;;;;;;5094997;28;20082;-69
2023/05/31 09:25:05;;;;;;;14.45;6.60;;;14.60;99.90;;;;;;5095366;28;20075;-69
2023/05/31 09:27:36;;;;;;;13.65;6.90;;;14.40;99.90;;;;;;5078472;28;20103;-69
2023/05/31 09:30:09;;;;;;;17.45;7.38;;;;;;;;;;5095170;28;20054;-69
2023/05/31 09:32:35;;;;;;;13.10;6.30;;;;;;;;;;5078347;28;20039;-69
2023/05/31 09:35:16;;;;;;;12.75;7.13;;;15.30;99.90;;;;;;5094849;28;20078;-69
2023/05/31 09:37:46;;;;;;;17.90;7.00;;;15.20;99.90;;;;;;5094891;28;20545;-69
2023/05/31 09:40:29;;;;;;;17.38;6.55;;;15.40;99.90;;;;;;5094812;28;20044;-69
2023/05/31 09:42:55;;;;;;;16.50;6.80;;;;;;;;;;5094862;28;20043;-69
2023/05/31 09:45:22;;;;;;;19.77;7.32;;;15.30;99.90;;;;;;5094819;28;20039;-69
2023/05/31 09:47:48;;;;;;;15.38;6.18;;;15.40;99.90;;;;;;5128824;27;20043;-69
2023/05/31 09:50:20;;;;;;;18.27;6.20;;;15.40;99.90;;;;;;5077998;28;20067;-69
2023/05/31 09:52:47;;;;;;;15.13;6.23;;;;;;;;;;5094505;28;20051;-69
2023/05/31 09:55:15;;;;;;;9.45;6.30;;;15.20;99.90;;;;;;5094620;28;20036;-69
2023/05/31 09:57:43;;;;;;;15.38;5.47;;;;;;;;;;5128531;27;20048;-69
2023/05/31 10:00:19;;;;;;;13.32;5.97;;;15.80;99.90;;;;;;5077745;28;20088;-69
2023/05/31 10:02:50;;;;;;;13.98;6.85;;;15.40;99.90;;;;;;5094504;28;20089;-69
2023/05/31 10:05:16;;;;;;;11.90;6.53;;;;;;;;;;5077865;28;20043;-69
2023/05/31 10:07:49;;;;;;;11.90;6.40;;;15.90;99.90;;;;;;5094710;28;20166;-69
2023/05/31 10:10:19;;;;;;;15.43;7.07;;;15.60;99.90;;;;;;5077527;28;20112;-69
2023/05/31 10:12:45;;;;;;;14.75;6.63;;;;;;;;;;5094086;28;20555;-69
2023/05/31 10:15:16;;;;;;;14.30;6.93;;;16.00;99.90;;;;;;5094156;28;20511;-69
2023/05/31 10:17:50;;;;;;;14.00;6.20;;;15.60;99.90;;;;;;5095191;28;20114;-70
2023/05/31 10:20:17;;;;;;;13.88;6.30;;;;;;;;;;5094474;28;20036;-70
2023/05/31 10:22:45;;;;;;;12.77;6.15;;;15.80;99.90;;;;;;5077354;28;20043;-70
2023/05/31 10:25:16;;;;;;;13.70;6.85;;;;;;;;;;5094265;28;20032;-70
2023/05/31 10:27:45;;;;;;;10.30;6.03;;;16.00;99.90;;;;;;5093930;28;20036;-70
2023/05/31 10:30:13;;;;;;;12.20;5.88;;;15.80;99.90;;;;;;5092944;28;20438;-70
2023/05/31 10:32:45;;;;;;;12.27;6.05;;;16.10;99.90;;;;;;5093865;28;20042;-70
2023/05/31 10:35:12;;;;;;;9.63;5.68;;;;;;;;;;5093776;28;20053;-70
2023/05/31 10:37:41;;;;;;;8.55;5.90;;;15.40;99.90;;;;;;5093727;28;20048;-70
2023/05/31 10:40:16;;;;;;;9.63;4.80;;;;;;;;;;5077085;28;20380;-70
2023/05/31 10:42:59;;;;;;;10.40;5.50;;;16.70;99.90;;;;;;5093629;28;20074;-70
2023/05/31 10:45:24;;;;;;;;;;;17.10;99.90;;;;;;5077070;28;20071;-70
2023/05/31 10:47:58;;;;;;;15.15;5.80;;;;;;;;;;5110446;28;19974;-70
2023/05/31 10:50:24;;;;;;;12.85;6.30;;;;;;;;;;5093664;28;20374;-69
2023/05/31 10:52:51;;;;;;;13.60;5.82;;;16.70;99.90;;;;;;5076541;28;20040;-69
2023/05/31 10:55:22;;;;;;;11.25;5.68;;;16.60;99.90;;;;;;5093269;28;20118;-69
2023/05/31 10:57:55;;;;;;;9.77;5.40;;;16.50;99.90;;;;;;5076807;28;20075;-69
2023/05/31 11:00:22;;;;;;;11.38;5.70;;;16.90;99.90;;;;;;5093615;28;20040;-69
2023/05/31 11:02:56;;;;;;;12.95;6.03;;;16.60;99.90;;;;;;5093256;28;20048;-69
2023/05/31 11:05:24;;;;;;;9.20;5.80;;;16.60;99.90;;;;;;5127410;27;20332;-69
2023/05/31 11:07:51;;;;;;;12.73;5.75;;;17.30;99.90;;;;;;5076845;28;20044;-69
2023/05/31 11:10:35;;;;;;;12.95;5.35;;;17.10;99.90;;;;;;5093056;28;20044;-69
2023/05/31 11:13:05;;;;;;;9.73;5.20;;;17.20;99.90;;;;;;5092965;28;20488;-69
2023/05/31 11:15:44;;;;;;;7.55;4.60;;;;;;;;;;5092907;28;20036;-69
2023/05/31 11:18:22;;;;;;;10.82;5.72;;;17.20;99.90;;;;;;5076196;28;20052;-69
2023/05/31 11:20:48;;;;;;;11.75;5.00;;;;;;;;;;5092912;28;20063;-70
2023/05/31 11:23:17;;;;;;;10.27;5.25;;;16.50;99.90;;;;;;5092875;28;20053;-69
2023/05/31 11:25:43;;;;;;;15.57;6.57;;;;;;;;;;5093128;28;20113;-69
2023/05/31 11:28:10;;;;;;;14.48;5.78;;;18.40;99.90;;;;;;5093097;28;20456;-69
2023/05/31 11:30:40;;;;;;;11.75;6.30;;;17.90;99.90;;;;;;5093193;28;20040;-70
2023/05/31 11:33:15;;;;;;;13.65;6.40;;;17.90;99.90;;;;;;5092810;28;20048;-70
2023/05/31 11:35:41;;;;;;;12.00;5.65;;;16.80;99.90;;;;;;5075909;28;20506;-69
2023/05/31 11:38:07;;;;;;;18.73;6.30;;;18.40;99.90;;;;;;5092766;28;20090;-70
2023/05/31 11:40:35;;;;;;;14.77;6.55;;;18.50;99.90;;;;;;5075660;28;20484;-69
2023/05/31 11:43:06;;;;;;;11.70;6.00;;;18.30;99.90;;;;;;5076513;28;20070;-70
2023/05/31 11:45:33;;;;;;;10.50;6.10;;;18.40;99.90;;;;;;5092460;28;20044;-70
2023/05/31 11:47:59;;;;;;;13.18;6.25;;;;;;;;;;5075621;28;20505;-69
2023/05/31 11:50:25;;;;;;;10.38;6.30;;;17.80;99.90;;;;;;5092112;28;20032;-70
2023/05/31 11:52:54;;;;;;;10.82;5.63;;;;;;;;;;5092119;28;20040;-69
2023/05/31 11:55:21;;;;;;;15.70;6.70;;;;;;;;;;5092198;28;20066;-69
2023/05/31 11:57:51;;;;;;;16.35;7.03;;;17.60;99.90;;;;;;5075717;28;20051;-69
2023/05/31 12:00:21;;;;;;;10.57;6.45;;;17.00;99.90;;;;;;5092187;28;20040;-69
2023/05/31 12:02:59;;;;;;;10.20;6.03;;;17.70;99.90;;;;;;5092487;28;20050;-69
2023/05/31 12:05:25;;;;;;;14.50;6.53;;;;;;;;;;5092115;28;20480;-69
2023/05/31 12:07:56;;;;;;;13.70;6.53;;;17.40;99.90;;;;;;5092132;28;20036;-69
2023/05/31 12:10:30;;;;;;;13.73;6.38;;;17.70;99.90;;;;;;5075223;28;20151;-69
2023/05/31 12:12:58;;;;;;;12.43;5.93;;;17.90;99.90;;;;;;5092027;28;20067;-70
2023/05/31 12:15:26;;;;;;;13.35;6.28;;;;;;;;;;5075289;28;20074;-70
2023/05/31 12:17:52;;;;;;;12.85;6.60;;;;;;;;;;5091880;28;20086;-69
2023/05/31 12:20:17;;;;;;;16.60;8.05;;;17.90;99.90;;;;;;5092083;28;20043;-69
2023/05/31 12:22:43;;;;;;;13.75;6.97;;;17.70;99.90;;;;;;5075179;28;20044;-70
2023/05/31 12:25:10;;;;;;;11.18;6.57;;;18.90;99.90;;;;;;5092028;28;20082;-69
2023/05/31 12:27:36;;;;;;;13.07;6.88;;;18.80;99.90;;;;;;5091921;28;20036;-69
2023/05/31 12:30:03;;;;;;;14.95;7.47;;;;;;;;;;5091868;28;20039;-70
2023/05/31 12:32:29;;;;;;;10.18;6.50;;;;;;;;;;5091870;28;20131;-69
2023/05/31 12:35:10;;;;;;;11.02;6.47;;;18.40;99.90;;;;;;5075085;28;20032;-69
2023/05/31 12:37:38;;;;;;;12.75;6.57;;;18.40;99.90;;;;;;5074969;28;20040;-70
2023/05/31 12:40:20;;;;;;;12.15;5.80;;;19.00;99.90;;;;;;5091788;28;20092;-71
2023/05/31 12:42:46;;;;;;;17.40;6.38;;;;;;;;;;5075407;28;20441;-70
2023/05/31 12:45:12;;;;;;;9.32;5.68;;;;;;;;;;5091608;28;20047;-70
2023/05/31 12:47:38;;;;;;;12.48;6.22;;;18.60;99.90;;;;;;5074891;28;20036;-70
2023/05/31 12:50:06;;;;;;;13.27;4.80;;;19.00;99.90;;;;;;5075048;28;20046;-70
2023/05/31 12:52:38;;;;;;;10.48;5.80;;;17.70;99.90;;;;;;5091689;28;20047;-70
2023/05/31 12:55:08;;;;;;;13.95;6.03;;;19.20;99.90;;;;;;5095093;28;20040;-70
2023/05/31 12:57:34;;;;;;;16.02;8.20;;;;;;;;;;5095713;28;20043;-70
2023/05/31 13:00:10;;;;;;;12.07;6.82;;;18.80;99.90;;;;;;5062309;28;20036;-70
2023/05/31 13:02:37;;;;;;;13.55;6.18;;;;;;;;;;5095612;28;20118;-69
2023/05/31 13:05:04;;;;;;;14.60;6.22;;;18.70;99.90;;;;;;5096013;28;20185;-69
2023/05/31 13:07:30;;;;;;;11.10;5.90;;;;;;;;;;5095766;28;20043;-70
2023/05/31 13:09:56;;;;;;;12.48;5.93;;;;;;;;;;5095793;28;20071;-69
2023/05/31 13:12:22;;;;;;;13.23;6.18;;;18.80;99.90;;;;;;5095372;28;20040;-70
2023/05/31 13:14:48;;;;;;;13.45;5.95;;;17.90;99.90;;;;;;5095553;28;20047;-69
2023/05/31 13:17:17;;;;;;;13.57;5.70;;;;;;;;;;5095283;28;20394;-69
2023/05/31 13:19:43;;;;;;;10.85;4.82;;;19.00;99.90;;;;;;5078151;28;20131;-69
2023/05/31 13:22:09;;;;;;;9.77;5.40;;;;;;;;;;5095116;28;20086;-69
2023/05/31 13:24:35;;;;;;;11.38;6.63;;;19.10;99.90;;;;;;5078320;28;20044;-69
2023/05/31 13:27:01;;;;;;;9.73;6.30;;;19.40;99.90;;;;;;5078190;28;20051;-69
2023/05/31 13:29:26;;;;;;;10.10;6.65;;;19.60;99.90;;;;;;5077819;28;20047;-69
2023/05/31 13:31:52;;;;;;;16.38;6.60;;;;;;;;;;5077889;28;20126;-69
2023/05/31 13:34:19;;;;;;;10.88;5.55;;;18.50;99.90;;;;;;5078102;28;20078;-69
2023/05/31 13:36:46;;;;;;;11.07;4.72;;;19.60;99.90;;;;;;5095289;28;20044;-69
2023/05/31 13:39:14;;;;;;;14.45;4.95;;;18.60;99.90;;;;;;5095246;28;20127;-69
2023/05/31 13:41:42;;;;;;;12.48;4.90;;;18.50;99.90;;;;;;5078164;28;20123;-69
2023/05/31 13:44:08;;;;;;;13.77;4.45;;;19.40;99.90;;;;;;5078185;28;20079;-69
2023/05/31 13:46:34;;;;;;;13.10;5.00;;;;;;;;;;5078064;28;20083;-69
2023/05/31 13:49:00;;;;;;;15.75;5.68;;;;;;;;;;5077852;28;20048;-69
2023/05/31 13:51:26;;;;;;;12.75;5.05;;;18.10;99.90;;;;;;5094622;28;20468;-69
2023/05/31 13:53:52;;;;;;;13.82;4.70;;;19.30;99.90;;;;;;5077765;28;20078;-68
2023/05/31 13:56:18;;;;;;;12.38;4.60;;;;;;;;;;5077652;28;20048;-70